sensor_id;sensor_type;location;lat;lon;timestamp;P1;durP1;ratioP1;P2;durP2;ratioP2
19183;SDS011;9724;51.194;6.856;2023-09-19T00:00:30;10.80;;;2.30;;
19183;SDS011;9724;51.194;6.856;2023-09-19T00:02:57;11.93;;;2.20;;
19183;SDS011;9724;51.194;6.856;2023-09-19T00:05:26;13.73;;;2.30;;
19183;SDS011;9724;51.194;6.856;2023-09-19T00:07:54;7.57;;;2.40;;
19183;SDS011;9724;51.194;6.856;2023-09-19T00:10:24;9.47;;;2.40;;
19183;SDS011;9724;51.194;6.856;2023-09-19T00:12:52;8.50;;;2.00;;
19183;SDS011;9724;51.194;6.856;2023-09-19T00:15:20;10.93;;;2.40;;
19183;SDS011;9724;51.194;6.856;2023-09-19T00:17:47;7.73;;;1.87;;
19183;SDS011;9724;51.194;6.856;2023-09-19T00:20:13;9.17;;;2.37;;
19183;SDS011;9724;51.194;6.856;2023-09-19T00:22:43;12.23;;;2.30;;
19183;SDS011;9724;51.194;6.856;2023-09-19T00:25:10;10.23;;;2.40;;
19183;SDS011;9724;51.194;6.856;2023-09-19T00:27:37;8.47;;;2.17;;
19183;SDS011;9724;51.194;6.856;2023-09-19T00:30:07;11.23;;;1.87;;
19183;SDS011;9724;51.194;6.856;2023-09-19T00:32:39;7.43;;;2.03;;
19183;SDS011;9724;51.194;6.856;2023-09-19T00:35:06;9.53;;;2.30;;
19183;SDS011;9724;51.194;6.856;2023-09-19T00:37:34;21.03;;;2.47;;
19183;SDS011;9724;51.194;6.856;2023-09-19T00:40:02;9.10;;;2.20;;
19183;SDS011;9724;51.194;6.856;2023-09-19T00:42:31;6.83;;;2.37;;
19183;SDS011;9724;51.194;6.856;2023-09-19T00:44:57;19.00;;;2.20;;
19183;SDS011;9724;51.194;6.856;2023-09-19T00:47:23;12.77;;;2.57;;
19183;SDS011;9724;51.194;6.856;2023-09-19T00:49:51;11.33;;;2.30;;
19183;SDS011;9724;51.194;6.856;2023-09-19T00:52:18;11.20;;;2.40;;
19183;SDS011;9724;51.194;6.856;2023-09-19T00:54:46;12.37;;;2.37;;
19183;SDS011;9724;51.194;6.856;2023-09-19T00:57:13;15.00;;;2.40;;
19183;SDS011;9724;51.194;6.856;2023-09-19T00:59:41;15.33;;;2.83;;
19183;SDS011;9724;51.194;6.856;2023-09-19T01:02:07;12.50;;;2.23;;
19183;SDS011;9724;51.194;6.856;2023-09-19T01:04:34;8.43;;;2.10;;
19183;SDS011;9724;51.194;6.856;2023-09-19T01:07:00;16.40;;;2.47;;
19183;SDS011;9724;51.194;6.856;2023-09-19T01:09:27;5.33;;;2.10;;
19183;SDS011;9724;51.194;6.856;2023-09-19T01:11:53;11.20;;;2.30;;
19183;SDS011;9724;51.194;6.856;2023-09-19T01:14:28;11.03;;;2.80;;
19183;SDS011;9724;51.194;6.856;2023-09-19T01:16:59;11.17;;;2.13;;
19183;SDS011;9724;51.194;6.856;2023-09-19T01:19:38;12.77;;;2.40;;
19183;SDS011;9724;51.194;6.856;2023-09-19T01:22:26;10.97;;;2.27;;
19183;SDS011;9724;51.194;6.856;2023-09-19T01:25:18;11.47;;;2.27;;
19183;SDS011;9724;51.194;6.856;2023-09-19T01:28:06;10.13;;;2.47;;
19183;SDS011;9724;51.194;6.856;2023-09-19T01:30:39;11.00;;;2.40;;
19183;SDS011;9724;51.194;6.856;2023-09-19T01:33:06;11.97;;;2.40;;
19183;SDS011;9724;51.194;6.856;2023-09-19T01:35:33;9.33;;;2.30;;
19183;SDS011;9724;51.194;6.856;2023-09-19T01:38:00;13.53;;;2.60;;
19183;SDS011;9724;51.194;6.856;2023-09-19T01:40:26;12.37;;;2.67;;
19183;SDS011;9724;51.194;6.856;2023-09-19T01:42:54;8.63;;;2.30;;
19183;SDS011;9724;51.194;6.856;2023-09-19T01:45:25;13.37;;;2.80;;
19183;SDS011;9724;51.194;6.856;2023-09-19T01:47:55;13.23;;;2.50;;
19183;SDS011;9724;51.194;6.856;2023-09-19T01:50:26;16.90;;;2.50;;
19183;SDS011;9724;51.194;6.856;2023-09-19T01:52:57;5.33;;;1.83;;
19183;SDS011;9724;51.194;6.856;2023-09-19T01:55:26;6.40;;;1.80;;
19183;SDS011;9724;51.194;6.856;2023-09-19T01:57:58;10.10;;;2.17;;
19183;SDS011;9724;51.194;6.856;2023-09-19T02:00:29;13.87;;;2.43;;
19183;SDS011;9724;51.194;6.856;2023-09-19T02:02:57;8.23;;;2.03;;
19183;SDS011;9724;51.194;6.856;2023-09-19T02:05:25;7.93;;;2.30;;
19183;SDS011;9724;51.194;6.856;2023-09-19T02:07:51;13.00;;;2.33;;
19183;SDS011;9724;51.194;6.856;2023-09-19T02:10:18;13.63;;;2.17;;
19183;SDS011;9724;51.194;6.856;2023-09-19T02:12:45;14.70;;;2.40;;
19183;SDS011;9724;51.194;6.856;2023-09-19T02:15:12;9.73;;;1.93;;
19183;SDS011;9724;51.194;6.856;2023-09-19T02:17:41;12.93;;;2.73;;
19183;SDS011;9724;51.194;6.856;2023-09-19T02:20:10;13.07;;;2.93;;
19183;SDS011;9724;51.194;6.856;2023-09-19T02:22:40;7.93;;;2.17;;
19183;SDS011;9724;51.194;6.856;2023-09-19T02:25:07;10.13;;;2.30;;
19183;SDS011;9724;51.194;6.856;2023-09-19T02:27:34;7.77;;;2.33;;
19183;SDS011;9724;51.194;6.856;2023-09-19T02:30:00;13.07;;;2.20;;
19183;SDS011;9724;51.194;6.856;2023-09-19T02:32:29;11.47;;;2.20;;
19183;SDS011;9724;51.194;6.856;2023-09-19T02:34:56;10.70;;;2.90;;
19183;SDS011;9724;51.194;6.856;2023-09-19T02:37:24;11.37;;;1.87;;
19183;SDS011;9724;51.194;6.856;2023-09-19T02:39:51;15.80;;;2.70;;
19183;SDS011;9724;51.194;6.856;2023-09-19T02:42:17;13.30;;;2.67;;
19183;SDS011;9724;51.194;6.856;2023-09-19T02:44:44;6.50;;;2.20;;
19183;SDS011;9724;51.194;6.856;2023-09-19T02:47:12;14.67;;;2.60;;
19183;SDS011;9724;51.194;6.856;2023-09-19T02:49:40;12.00;;;2.40;;
19183;SDS011;9724;51.194;6.856;2023-09-19T02:52:08;13.53;;;2.70;;
19183;SDS011;9724;51.194;6.856;2023-09-19T02:54:35;13.47;;;2.37;;
19183;SDS011;9724;51.194;6.856;2023-09-19T02:57:01;13.47;;;2.50;;
19183;SDS011;9724;51.194;6.856;2023-09-19T02:59:29;9.33;;;2.30;;
19183;SDS011;9724;51.194;6.856;2023-09-19T03:01:56;9.83;;;2.50;;
19183;SDS011;9724;51.194;6.856;2023-09-19T03:04:23;11.37;;;2.47;;
19183;SDS011;9724;51.194;6.856;2023-09-19T03:06:50;8.23;;;1.90;;
19183;SDS011;9724;51.194;6.856;2023-09-19T03:09:17;14.07;;;2.30;;
19183;SDS011;9724;51.194;6.856;2023-09-19T03:11:45;13.27;;;2.23;;
19183;SDS011;9724;51.194;6.856;2023-09-19T03:14:13;9.30;;;1.93;;
19183;SDS011;9724;51.194;6.856;2023-09-19T03:16:39;10.20;;;2.33;;
19183;SDS011;9724;51.194;6.856;2023-09-19T03:19:06;13.37;;;2.60;;
19183;SDS011;9724;51.194;6.856;2023-09-19T03:21:32;7.93;;;2.63;;
19183;SDS011;9724;51.194;6.856;2023-09-19T03:23:59;7.63;;;2.07;;
19183;SDS011;9724;51.194;6.856;2023-09-19T03:26:25;9.60;;;2.40;;
19183;SDS011;9724;51.194;6.856;2023-09-19T03:28:52;14.50;;;2.20;;
19183;SDS011;9724;51.194;6.856;2023-09-19T03:31:19;7.87;;;2.47;;
19183;SDS011;9724;51.194;6.856;2023-09-19T03:33:46;9.27;;;2.73;;
19183;SDS011;9724;51.194;6.856;2023-09-19T03:36:12;10.53;;;2.07;;
19183;SDS011;9724;51.194;6.856;2023-09-19T03:38:42;12.83;;;2.07;;
19183;SDS011;9724;51.194;6.856;2023-09-19T03:41:08;7.50;;;1.80;;
19183;SDS011;9724;51.194;6.856;2023-09-19T03:43:35;7.33;;;2.20;;
19183;SDS011;9724;51.194;6.856;2023-09-19T03:46:02;8.27;;;2.47;;
19183;SDS011;9724;51.194;6.856;2023-09-19T03:48:29;7.03;;;2.10;;
19183;SDS011;9724;51.194;6.856;2023-09-19T03:50:56;7.23;;;2.37;;
19183;SDS011;9724;51.194;6.856;2023-09-19T03:53:22;5.50;;;2.07;;
19183;SDS011;9724;51.194;6.856;2023-09-19T03:55:48;6.27;;;2.03;;
19183;SDS011;9724;51.194;6.856;2023-09-19T03:58:15;11.07;;;2.80;;
19183;SDS011;9724;51.194;6.856;2023-09-19T04:00:41;11.47;;;2.50;;
19183;SDS011;9724;51.194;6.856;2023-09-19T04:03:08;9.13;;;2.40;;
19183;SDS011;9724;51.194;6.856;2023-09-19T04:05:44;12.87;;;2.50;;
19183;SDS011;9724;51.194;6.856;2023-09-19T04:08:11;10.07;;;2.23;;
19183;SDS011;9724;51.194;6.856;2023-09-19T04:10:41;11.27;;;2.27;;
19183;SDS011;9724;51.194;6.856;2023-09-19T04:13:08;10.07;;;2.23;;
19183;SDS011;9724;51.194;6.856;2023-09-19T04:15:34;9.53;;;2.30;;
19183;SDS011;9724;51.194;6.856;2023-09-19T04:18:00;9.73;;;2.30;;
19183;SDS011;9724;51.194;6.856;2023-09-19T04:20:29;8.70;;;2.27;;
19183;SDS011;9724;51.194;6.856;2023-09-19T04:22:55;9.97;;;2.43;;
19183;SDS011;9724;51.194;6.856;2023-09-19T04:25:21;12.60;;;2.47;;
19183;SDS011;9724;51.194;6.856;2023-09-19T04:27:48;12.57;;;2.47;;
19183;SDS011;9724;51.194;6.856;2023-09-19T04:30:14;10.00;;;2.10;;
19183;SDS011;9724;51.194;6.856;2023-09-19T04:32:41;9.00;;;1.80;;
19183;SDS011;9724;51.194;6.856;2023-09-19T04:35:08;10.63;;;2.30;;
19183;SDS011;9724;51.194;6.856;2023-09-19T04:37:37;5.60;;;1.90;;
19183;SDS011;9724;51.194;6.856;2023-09-19T04:40:05;9.53;;;2.30;;
19183;SDS011;9724;51.194;6.856;2023-09-19T04:42:32;10.17;;;2.93;;
19183;SDS011;9724;51.194;6.856;2023-09-19T04:44:58;10.80;;;2.47;;
19183;SDS011;9724;51.194;6.856;2023-09-19T04:47:25;9.73;;;2.30;;
19183;SDS011;9724;51.194;6.856;2023-09-19T04:49:52;10.43;;;2.53;;
19183;SDS011;9724;51.194;6.856;2023-09-19T04:52:18;16.17;;;3.13;;
19183;SDS011;9724;51.194;6.856;2023-09-19T04:54:46;12.63;;;2.80;;
19183;SDS011;9724;51.194;6.856;2023-09-19T04:57:14;15.17;;;2.97;;
19183;SDS011;9724;51.194;6.856;2023-09-19T04:59:40;8.97;;;2.40;;
19183;SDS011;9724;51.194;6.856;2023-09-19T05:02:07;11.33;;;2.77;;
19183;SDS011;9724;51.194;6.856;2023-09-19T05:04:34;19.67;;;3.00;;
19183;SDS011;9724;51.194;6.856;2023-09-19T05:07:01;13.83;;;2.97;;
19183;SDS011;9724;51.194;6.856;2023-09-19T05:09:29;7.90;;;2.10;;
19183;SDS011;9724;51.194;6.856;2023-09-19T05:11:56;16.97;;;2.90;;
19183;SDS011;9724;51.194;6.856;2023-09-19T05:14:23;16.77;;;2.43;;
19183;SDS011;9724;51.194;6.856;2023-09-19T05:16:50;14.00;;;2.80;;
19183;SDS011;9724;51.194;6.856;2023-09-19T05:19:17;12.90;;;2.80;;
19183;SDS011;9724;51.194;6.856;2023-09-19T05:21:44;13.47;;;2.67;;
19183;SDS011;9724;51.194;6.856;2023-09-19T05:24:10;17.97;;;2.93;;
19183;SDS011;9724;51.194;6.856;2023-09-19T05:26:38;10.93;;;2.67;;
19183;SDS011;9724;51.194;6.856;2023-09-19T05:29:06;10.00;;;2.57;;
19183;SDS011;9724;51.194;6.856;2023-09-19T05:31:33;21.53;;;3.13;;
19183;SDS011;9724;51.194;6.856;2023-09-19T05:34:02;17.33;;;3.30;;
19183;SDS011;9724;51.194;6.856;2023-09-19T05:36:28;16.93;;;3.10;;
19183;SDS011;9724;51.194;6.856;2023-09-19T05:38:55;12.23;;;3.03;;
19183;SDS011;9724;51.194;6.856;2023-09-19T05:41:21;12.60;;;2.67;;
19183;SDS011;9724;51.194;6.856;2023-09-19T05:43:49;13.93;;;3.00;;
19183;SDS011;9724;51.194;6.856;2023-09-19T05:46:16;17.10;;;3.07;;
19183;SDS011;9724;51.194;6.856;2023-09-19T05:48:43;9.07;;;2.90;;
19183;SDS011;9724;51.194;6.856;2023-09-19T05:51:09;14.63;;;2.53;;
19183;SDS011;9724;51.194;6.856;2023-09-19T05:53:36;13.73;;;2.70;;
19183;SDS011;9724;51.194;6.856;2023-09-19T05:56:03;10.67;;;2.70;;
19183;SDS011;9724;51.194;6.856;2023-09-19T05:58:29;18.77;;;2.60;;
19183;SDS011;9724;51.194;6.856;2023-09-19T06:00:56;14.83;;;2.73;;
19183;SDS011;9724;51.194;6.856;2023-09-19T06:03:23;13.20;;;2.80;;
19183;SDS011;9724;51.194;6.856;2023-09-19T06:05:50;14.67;;;2.87;;
19183;SDS011;9724;51.194;6.856;2023-09-19T06:08:18;18.07;;;3.30;;
19183;SDS011;9724;51.194;6.856;2023-09-19T06:10:45;13.87;;;2.63;;
19183;SDS011;9724;51.194;6.856;2023-09-19T06:13:12;13.67;;;2.57;;
19183;SDS011;9724;51.194;6.856;2023-09-19T06:15:38;17.53;;;2.90;;
19183;SDS011;9724;51.194;6.856;2023-09-19T06:18:10;15.80;;;2.90;;
19183;SDS011;9724;51.194;6.856;2023-09-19T06:20:40;13.07;;;2.20;;
19183;SDS011;9724;51.194;6.856;2023-09-19T06:23:09;9.43;;;3.03;;
19183;SDS011;9724;51.194;6.856;2023-09-19T06:25:36;12.10;;;2.53;;
19183;SDS011;9724;51.194;6.856;2023-09-19T06:28:02;13.13;;;2.53;;
19183;SDS011;9724;51.194;6.856;2023-09-19T06:30:31;16.00;;;2.83;;
19183;SDS011;9724;51.194;6.856;2023-09-19T06:32:58;14.73;;;2.97;;
19183;SDS011;9724;51.194;6.856;2023-09-19T06:35:26;11.20;;;2.57;;
19183;SDS011;9724;51.194;6.856;2023-09-19T06:37:53;17.93;;;2.90;;
19183;SDS011;9724;51.194;6.856;2023-09-19T06:40:19;19.77;;;3.83;;
19183;SDS011;9724;51.194;6.856;2023-09-19T06:42:46;17.20;;;2.80;;
19183;SDS011;9724;51.194;6.856;2023-09-19T06:45:15;10.13;;;2.53;;
19183;SDS011;9724;51.194;6.856;2023-09-19T06:47:44;16.17;;;3.00;;
19183;SDS011;9724;51.194;6.856;2023-09-19T06:50:11;17.80;;;2.53;;
19183;SDS011;9724;51.194;6.856;2023-09-19T06:52:40;21.63;;;3.23;;
19183;SDS011;9724;51.194;6.856;2023-09-19T06:55:07;12.37;;;2.73;;
19183;SDS011;9724;51.194;6.856;2023-09-19T06:57:35;18.77;;;3.13;;
19183;SDS011;9724;51.194;6.856;2023-09-19T07:00:01;13.43;;;2.33;;
19183;SDS011;9724;51.194;6.856;2023-09-19T07:02:33;15.60;;;2.93;;
19183;SDS011;9724;51.194;6.856;2023-09-19T07:04:59;11.30;;;2.47;;
19183;SDS011;9724;51.194;6.856;2023-09-19T07:07:26;9.60;;;2.23;;
19183;SDS011;9724;51.194;6.856;2023-09-19T07:09:52;13.63;;;2.60;;
19183;SDS011;9724;51.194;6.856;2023-09-19T07:12:20;17.30;;;2.67;;
19183;SDS011;9724;51.194;6.856;2023-09-19T07:14:46;7.53;;;2.50;;
19183;SDS011;9724;51.194;6.856;2023-09-19T07:17:12;13.10;;;2.23;;
19183;SDS011;9724;51.194;6.856;2023-09-19T07:19:44;9.53;;;2.50;;
19183;SDS011;9724;51.194;6.856;2023-09-19T07:22:10;12.13;;;2.70;;
19183;SDS011;9724;51.194;6.856;2023-09-19T07:24:36;13.70;;;3.00;;
19183;SDS011;9724;51.194;6.856;2023-09-19T07:27:04;10.23;;;2.67;;
19183;SDS011;9724;51.194;6.856;2023-09-19T07:29:31;14.03;;;2.77;;
19183;SDS011;9724;51.194;6.856;2023-09-19T07:31:57;10.00;;;2.50;;
19183;SDS011;9724;51.194;6.856;2023-09-19T07:34:24;9.23;;;1.83;;
19183;SDS011;9724;51.194;6.856;2023-09-19T07:36:50;16.13;;;3.13;;
19183;SDS011;9724;51.194;6.856;2023-09-19T07:39:16;7.47;;;2.27;;
19183;SDS011;9724;51.194;6.856;2023-09-19T07:41:49;14.83;;;2.50;;
19183;SDS011;9724;51.194;6.856;2023-09-19T07:44:15;13.67;;;2.83;;
19183;SDS011;9724;51.194;6.856;2023-09-19T07:46:43;14.93;;;2.73;;
19183;SDS011;9724;51.194;6.856;2023-09-19T07:49:10;12.63;;;2.20;;
19183;SDS011;9724;51.194;6.856;2023-09-19T07:51:36;13.03;;;2.50;;
19183;SDS011;9724;51.194;6.856;2023-09-19T07:54:04;14.60;;;3.03;;
19183;SDS011;9724;51.194;6.856;2023-09-19T07:56:30;11.47;;;2.30;;
19183;SDS011;9724;51.194;6.856;2023-09-19T07:58:57;18.40;;;2.77;;
19183;SDS011;9724;51.194;6.856;2023-09-19T08:01:24;16.77;;;2.63;;
19183;SDS011;9724;51.194;6.856;2023-09-19T08:03:53;9.73;;;2.60;;
19183;SDS011;9724;51.194;6.856;2023-09-19T08:06:19;12.93;;;2.70;;
19183;SDS011;9724;51.194;6.856;2023-09-19T08:08:46;17.57;;;2.83;;
19183;SDS011;9724;51.194;6.856;2023-09-19T08:11:12;12.17;;;2.43;;
19183;SDS011;9724;51.194;6.856;2023-09-19T08:13:46;10.37;;;2.30;;
19183;SDS011;9724;51.194;6.856;2023-09-19T08:16:14;15.97;;;2.67;;
19183;SDS011;9724;51.194;6.856;2023-09-19T08:18:41;13.17;;;2.27;;
19183;SDS011;9724;51.194;6.856;2023-09-19T08:21:08;8.07;;;2.30;;
19183;SDS011;9724;51.194;6.856;2023-09-19T08:23:36;14.60;;;2.53;;
19183;SDS011;9724;51.194;6.856;2023-09-19T08:26:04;13.67;;;2.97;;
19183;SDS011;9724;51.194;6.856;2023-09-19T08:28:33;12.80;;;2.43;;
19183;SDS011;9724;51.194;6.856;2023-09-19T08:31:03;13.17;;;2.40;;
19183;SDS011;9724;51.194;6.856;2023-09-19T08:33:31;13.57;;;2.20;;
19183;SDS011;9724;51.194;6.856;2023-09-19T08:35:57;11.67;;;2.07;;
19183;SDS011;9724;51.194;6.856;2023-09-19T08:38:24;12.27;;;2.57;;
19183;SDS011;9724;51.194;6.856;2023-09-19T08:40:56;16.17;;;3.17;;
19183;SDS011;9724;51.194;6.856;2023-09-19T08:43:23;15.57;;;3.10;;
19183;SDS011;9724;51.194;6.856;2023-09-19T08:45:50;7.47;;;2.20;;
19183;SDS011;9724;51.194;6.856;2023-09-19T08:48:20;10.87;;;2.40;;
19183;SDS011;9724;51.194;6.856;2023-09-19T08:50:52;14.83;;;2.80;;
19183;SDS011;9724;51.194;6.856;2023-09-19T08:53:21;9.33;;;2.43;;
19183;SDS011;9724;51.194;6.856;2023-09-19T08:55:55;15.80;;;2.63;;
19183;SDS011;9724;51.194;6.856;2023-09-19T08:58:25;8.03;;;2.43;;
19183;SDS011;9724;51.194;6.856;2023-09-19T09:00:55;9.53;;;2.20;;
19183;SDS011;9724;51.194;6.856;2023-09-19T09:03:22;8.07;;;2.10;;
19183;SDS011;9724;51.194;6.856;2023-09-19T09:05:49;8.97;;;2.37;;
19183;SDS011;9724;51.194;6.856;2023-09-19T09:08:16;9.77;;;2.53;;
19183;SDS011;9724;51.194;6.856;2023-09-19T09:10:46;8.40;;;2.50;;
19183;SDS011;9724;51.194;6.856;2023-09-19T09:13:12;12.87;;;2.40;;
19183;SDS011;9724;51.194;6.856;2023-09-19T09:15:41;16.33;;;2.90;;
19183;SDS011;9724;51.194;6.856;2023-09-19T09:18:07;11.10;;;2.63;;
19183;SDS011;9724;51.194;6.856;2023-09-19T09:20:34;7.77;;;2.07;;
19183;SDS011;9724;51.194;6.856;2023-09-19T09:23:01;10.20;;;2.00;;
19183;SDS011;9724;51.194;6.856;2023-09-19T09:25:48;14.37;;;2.87;;
19183;SDS011;9724;51.194;6.856;2023-09-19T09:28:19;11.90;;;2.40;;
19183;SDS011;9724;51.194;6.856;2023-09-19T09:30:46;7.87;;;2.10;;
19183;SDS011;9724;51.194;6.856;2023-09-19T09:33:13;9.90;;;2.20;;
19183;SDS011;9724;51.194;6.856;2023-09-19T09:35:47;7.77;;;2.63;;
19183;SDS011;9724;51.194;6.856;2023-09-19T09:38:18;18.97;;;2.47;;
19183;SDS011;9724;51.194;6.856;2023-09-19T09:40:45;11.40;;;2.50;;
19183;SDS011;9724;51.194;6.856;2023-09-19T09:43:24;12.53;;;2.50;;
19183;SDS011;9724;51.194;6.856;2023-09-19T09:46:05;9.53;;;2.13;;
19183;SDS011;9724;51.194;6.856;2023-09-19T09:48:36;7.63;;;2.00;;
19183;SDS011;9724;51.194;6.856;2023-09-19T09:51:04;14.83;;;2.20;;
19183;SDS011;9724;51.194;6.856;2023-09-19T09:53:33;9.63;;;2.20;;
19183;SDS011;9724;51.194;6.856;2023-09-19T09:56:00;7.33;;;2.23;;
19183;SDS011;9724;51.194;6.856;2023-09-19T09:58:31;9.80;;;2.50;;
19183;SDS011;9724;51.194;6.856;2023-09-19T10:00:58;10.57;;;2.17;;
19183;SDS011;9724;51.194;6.856;2023-09-19T10:03:31;10.40;;;2.00;;
19183;SDS011;9724;51.194;6.856;2023-09-19T10:06:00;7.87;;;2.70;;
19183;SDS011;9724;51.194;6.856;2023-09-19T10:08:34;8.63;;;2.43;;
19183;SDS011;9724;51.194;6.856;2023-09-19T10:11:14;9.70;;;2.27;;
19183;SDS011;9724;51.194;6.856;2023-09-19T10:13:42;9.90;;;2.10;;
19183;SDS011;9724;51.194;6.856;2023-09-19T10:16:11;8.63;;;2.10;;
19183;SDS011;9724;51.194;6.856;2023-09-19T10:18:40;12.70;;;2.40;;
19183;SDS011;9724;51.194;6.856;2023-09-19T10:21:08;7.93;;;2.13;;
19183;SDS011;9724;51.194;6.856;2023-09-19T10:23:35;11.43;;;2.50;;
19183;SDS011;9724;51.194;6.856;2023-09-19T10:26:02;8.40;;;2.37;;
19183;SDS011;9724;51.194;6.856;2023-09-19T10:28:30;12.60;;;2.27;;
19183;SDS011;9724;51.194;6.856;2023-09-19T10:30:58;15.13;;;2.80;;
19183;SDS011;9724;51.194;6.856;2023-09-19T10:33:26;9.50;;;2.23;;
19183;SDS011;9724;51.194;6.856;2023-09-19T10:36:00;7.80;;;1.97;;
19183;SDS011;9724;51.194;6.856;2023-09-19T10:38:27;5.73;;;2.00;;
19183;SDS011;9724;51.194;6.856;2023-09-19T10:40:55;10.20;;;2.47;;
19183;SDS011;9724;51.194;6.856;2023-09-19T10:43:26;7.97;;;2.37;;
19183;SDS011;9724;51.194;6.856;2023-09-19T10:46:01;14.90;;;2.53;;
19183;SDS011;9724;51.194;6.856;2023-09-19T10:48:29;9.97;;;2.10;;
19183;SDS011;9724;51.194;6.856;2023-09-19T10:50:58;13.63;;;2.67;;
19183;SDS011;9724;51.194;6.856;2023-09-19T10:53:32;9.13;;;2.27;;
19183;SDS011;9724;51.194;6.856;2023-09-19T10:56:08;9.03;;;2.33;;
19183;SDS011;9724;51.194;6.856;2023-09-19T10:58:43;13.30;;;2.37;;
19183;SDS011;9724;51.194;6.856;2023-09-19T11:01:11;6.23;;;1.97;;
19183;SDS011;9724;51.194;6.856;2023-09-19T11:03:38;7.60;;;2.07;;
19183;SDS011;9724;51.194;6.856;2023-09-19T11:06:12;6.77;;;2.10;;
19183;SDS011;9724;51.194;6.856;2023-09-19T11:08:55;9.67;;;2.40;;
19183;SDS011;9724;51.194;6.856;2023-09-19T11:20:19;8.47;;;2.73;;
19183;SDS011;9724;51.194;6.856;2023-09-19T11:25:48;6.73;;;2.03;;
19183;SDS011;9724;51.194;6.856;2023-09-19T11:28:28;8.00;;;2.40;;
19183;SDS011;9724;51.194;6.856;2023-09-19T11:30:56;8.03;;;2.57;;
19183;SDS011;9724;51.194;6.856;2023-09-19T11:33:24;7.70;;;2.20;;
19183;SDS011;9724;51.194;6.856;2023-09-19T11:36:00;7.37;;;2.40;;
19183;SDS011;9724;51.194;6.856;2023-09-19T11:41:37;8.53;;;2.90;;
19183;SDS011;9724;51.194;6.856;2023-09-19T11:47:00;8.63;;;1.90;;
19183;SDS011;9724;51.194;6.856;2023-09-19T11:49:29;4.60;;;1.97;;
19183;SDS011;9724;51.194;6.856;2023-09-19T11:51:59;9.20;;;2.10;;
19183;SDS011;9724;51.194;6.856;2023-09-19T11:54:30;8.70;;;2.23;;
19183;SDS011;9724;51.194;6.856;2023-09-19T11:56:57;7.50;;;2.03;;
19183;SDS011;9724;51.194;6.856;2023-09-19T11:59:25;7.67;;;2.30;;
19183;SDS011;9724;51.194;6.856;2023-09-19T12:01:54;4.93;;;1.77;;
19183;SDS011;9724;51.194;6.856;2023-09-19T12:04:34;9.73;;;2.40;;
19183;SDS011;9724;51.194;6.856;2023-09-19T12:07:03;5.93;;;2.03;;
19183;SDS011;9724;51.194;6.856;2023-09-19T12:09:31;7.97;;;2.37;;
19183;SDS011;9724;51.194;6.856;2023-09-19T12:11:57;6.03;;;1.90;;
19183;SDS011;9724;51.194;6.856;2023-09-19T12:14:26;5.70;;;1.70;;
19183;SDS011;9724;51.194;6.856;2023-09-19T12:16:56;9.83;;;2.10;;
19183;SDS011;9724;51.194;6.856;2023-09-19T12:19:26;8.20;;;2.00;;
19183;SDS011;9724;51.194;6.856;2023-09-19T12:21:54;6.80;;;2.30;;
19183;SDS011;9724;51.194;6.856;2023-09-19T12:24:23;10.03;;;2.87;;
19183;SDS011;9724;51.194;6.856;2023-09-19T12:26:59;6.47;;;2.10;;
19183;SDS011;9724;51.194;6.856;2023-09-19T12:29:27;10.53;;;2.10;;
19183;SDS011;9724;51.194;6.856;2023-09-19T12:31:55;5.27;;;1.63;;
19183;SDS011;9724;51.194;6.856;2023-09-19T12:34:23;11.20;;;2.20;;
19183;SDS011;9724;51.194;6.856;2023-09-19T12:37:05;3.90;;;2.03;;
19183;SDS011;9724;51.194;6.856;2023-09-19T12:39:40;3.53;;;1.90;;
19183;SDS011;9724;51.194;6.856;2023-09-19T12:42:08;15.97;;;5.53;;
19183;SDS011;9724;51.194;6.856;2023-09-19T12:44:36;10.47;;;2.50;;
19183;SDS011;9724;51.194;6.856;2023-09-19T12:47:10;6.70;;;1.83;;
19183;SDS011;9724;51.194;6.856;2023-09-19T12:52:41;8.40;;;1.93;;
19183;SDS011;9724;51.194;6.856;2023-09-19T12:55:20;7.17;;;2.00;;
19183;SDS011;9724;51.194;6.856;2023-09-19T12:58:11;7.23;;;1.90;;
19183;SDS011;9724;51.194;6.856;2023-09-19T13:00:39;8.27;;;1.90;;
19183;SDS011;9724;51.194;6.856;2023-09-19T13:03:11;6.03;;;1.70;;
19183;SDS011;9724;51.194;6.856;2023-09-19T13:05:48;8.17;;;1.97;;
19183;SDS011;9724;51.194;6.856;2023-09-19T13:08:19;5.53;;;1.33;;
19183;SDS011;9724;51.194;6.856;2023-09-19T13:10:59;8.17;;;2.10;;
19183;SDS011;9724;51.194;6.856;2023-09-19T13:13:27;3.50;;;1.73;;
19183;SDS011;9724;51.194;6.856;2023-09-19T13:15:55;9.13;;;1.90;;
19183;SDS011;9724;51.194;6.856;2023-09-19T13:18:23;8.13;;;2.50;;
19183;SDS011;9724;51.194;6.856;2023-09-19T13:21:06;7.10;;;1.80;;
19183;SDS011;9724;51.194;6.856;2023-09-19T13:23:36;4.53;;;1.67;;
19183;SDS011;9724;51.194;6.856;2023-09-19T13:26:03;5.60;;;1.53;;
19183;SDS011;9724;51.194;6.856;2023-09-19T13:28:31;4.87;;;1.40;;
19183;SDS011;9724;51.194;6.856;2023-09-19T13:30:57;5.83;;;1.60;;
19183;SDS011;9724;51.194;6.856;2023-09-19T13:33:23;6.17;;;1.43;;
19183;SDS011;9724;51.194;6.856;2023-09-19T13:35:51;4.13;;;1.70;;
19183;SDS011;9724;51.194;6.856;2023-09-19T13:38:18;6.43;;;1.80;;
19183;SDS011;9724;51.194;6.856;2023-09-19T13:40:48;5.70;;;1.60;;
19183;SDS011;9724;51.194;6.856;2023-09-19T13:43:15;5.37;;;1.70;;
19183;SDS011;9724;51.194;6.856;2023-09-19T13:45:41;6.23;;;1.50;;
19183;SDS011;9724;51.194;6.856;2023-09-19T13:48:08;5.50;;;1.40;;
19183;SDS011;9724;51.194;6.856;2023-09-19T13:50:36;2.60;;;1.30;;
19183;SDS011;9724;51.194;6.856;2023-09-19T13:53:07;4.20;;;1.53;;
19183;SDS011;9724;51.194;6.856;2023-09-19T13:55:33;9.03;;;1.53;;
19183;SDS011;9724;51.194;6.856;2023-09-19T13:58:00;5.90;;;1.50;;
19183;SDS011;9724;51.194;6.856;2023-09-19T14:00:27;7.27;;;1.63;;
19183;SDS011;9724;51.194;6.856;2023-09-19T14:02:53;5.40;;;1.60;;
19183;SDS011;9724;51.194;6.856;2023-09-19T14:05:20;3.80;;;1.30;;
19183;SDS011;9724;51.194;6.856;2023-09-19T14:07:47;4.07;;;1.17;;
19183;SDS011;9724;51.194;6.856;2023-09-19T14:10:13;4.43;;;1.27;;
19183;SDS011;9724;51.194;6.856;2023-09-19T14:12:40;2.80;;;1.20;;
19183;SDS011;9724;51.194;6.856;2023-09-19T14:15:07;4.20;;;1.33;;
19183;SDS011;9724;51.194;6.856;2023-09-19T14:17:34;5.30;;;1.27;;
19183;SDS011;9724;51.194;6.856;2023-09-19T14:20:01;4.83;;;1.37;;
19183;SDS011;9724;51.194;6.856;2023-09-19T14:22:27;5.50;;;1.13;;
19183;SDS011;9724;51.194;6.856;2023-09-19T14:24:54;5.87;;;1.37;;
19183;SDS011;9724;51.194;6.856;2023-09-19T14:27:20;3.90;;;1.10;;
19183;SDS011;9724;51.194;6.856;2023-09-19T14:29:46;4.50;;;1.43;;
19183;SDS011;9724;51.194;6.856;2023-09-19T14:32:13;3.03;;;1.20;;
19183;SDS011;9724;51.194;6.856;2023-09-19T14:34:40;5.17;;;1.70;;
19183;SDS011;9724;51.194;6.856;2023-09-19T14:37:08;4.57;;;1.40;;
19183;SDS011;9724;51.194;6.856;2023-09-19T14:39:35;3.13;;;1.40;;
19183;SDS011;9724;51.194;6.856;2023-09-19T14:42:02;4.20;;;1.27;;
19183;SDS011;9724;51.194;6.856;2023-09-19T14:44:28;4.33;;;1.20;;
19183;SDS011;9724;51.194;6.856;2023-09-19T14:46:55;3.47;;;1.10;;
19183;SDS011;9724;51.194;6.856;2023-09-19T14:49:22;4.07;;;1.33;;
19183;SDS011;9724;51.194;6.856;2023-09-19T14:51:48;4.53;;;1.30;;
19183;SDS011;9724;51.194;6.856;2023-09-19T14:54:15;2.67;;;1.40;;
19183;SDS011;9724;51.194;6.856;2023-09-19T14:56:42;2.90;;;1.10;;
19183;SDS011;9724;51.194;6.856;2023-09-19T14:59:10;3.97;;;1.20;;
19183;SDS011;9724;51.194;6.856;2023-09-19T15:01:37;2.37;;;1.43;;
19183;SDS011;9724;51.194;6.856;2023-09-19T15:04:04;4.00;;;1.40;;
19183;SDS011;9724;51.194;6.856;2023-09-19T15:06:31;4.03;;;1.23;;
19183;SDS011;9724;51.194;6.856;2023-09-19T15:08:57;7.87;;;1.20;;
19183;SDS011;9724;51.194;6.856;2023-09-19T15:11:23;2.90;;;1.30;;
19183;SDS011;9724;51.194;6.856;2023-09-19T15:13:51;6.17;;;1.40;;
19183;SDS011;9724;51.194;6.856;2023-09-19T15:16:17;4.20;;;1.27;;
19183;SDS011;9724;51.194;6.856;2023-09-19T15:18:45;4.23;;;1.00;;
19183;SDS011;9724;51.194;6.856;2023-09-19T15:21:13;1.60;;;0.83;;
19183;SDS011;9724;51.194;6.856;2023-09-19T15:23:41;4.70;;;1.17;;